Terminal Aerodrome Forecast
Issued by NWS

Home | Current Version | Previous Version | Text Only | Print | Product List | Glossary On
Versions: 1 2 3 4 5 6 7 8 9 10 11 12 13 14 15 16 17 18 19 20 21 22 23 24 25 26 27 28 29 30 31 32 33 34 35 36 37 38 39 40 41 42 43 44 45 46 47 48 49 50
000
FTUS45 KCYS 180611 CCB
TAFLAR
TAF COR
KLAR 180611Z 1806/1906 30015G25KT 5SM -SN BKN025 OVC050
      TEMPO 1806/1808 32030G45KT 1/4SM SN FZFG VV005
     FM180800 30012G20KT P6SM BKN100
     FM181000 28013KT P6SM SKC
     FM181500 27018G28KT P6SM SCT250
     FM190000 25011KT P6SM SCT250=

USA.gov is the U.S. government's official web portal to all federal, state and local government web resources and services.